sensor_id;sensor_type;location;lat;lon;timestamp;temperature;humidity
31542;DHT22;18152;49.986;8.646;2023-07-08T00:00:18;17.60;99.90
31542;DHT22;18152;49.986;8.646;2023-07-08T00:02:45;17.50;99.90
31542;DHT22;18152;49.986;8.646;2023-07-08T00:05:12;17.50;99.90
31542;DHT22;18152;49.986;8.646;2023-07-08T00:07:39;17.40;99.90
31542;DHT22;18152;49.986;8.646;2023-07-08T00:10:26;17.40;99.90
31542;DHT22;18152;49.986;8.646;2023-07-08T00:12:54;17.40;99.90
31542;DHT22;18152;49.986;8.646;2023-07-08T00:15:29;17.30;99.90
31542;DHT22;18152;49.986;8.646;2023-07-08T00:17:55;17.30;99.90
31542;DHT22;18152;49.986;8.646;2023-07-08T00:22:56;17.20;99.90
31542;DHT22;18152;49.986;8.646;2023-07-08T00:25:22;17.20;99.90
31542;DHT22;18152;49.986;8.646;2023-07-08T00:27:48;17.20;99.90
31542;DHT22;18152;49.986;8.646;2023-07-08T00:30:22;17.20;99.90
31542;DHT22;18152;49.986;8.646;2023-07-08T00:32:47;17.20;99.90
31542;DHT22;18152;49.986;8.646;2023-07-08T00:35:13;17.20;99.90
31542;DHT22;18152;49.986;8.646;2023-07-08T00:37:39;17.20;99.90
31542;DHT22;18152;49.986;8.646;2023-07-08T00:40:15;17.20;99.90
31542;DHT22;18152;49.986;8.646;2023-07-08T00:42:42;17.20;99.90
31542;DHT22;18152;49.986;8.646;2023-07-08T00:45:29;17.10;99.90
31542;DHT22;18152;49.986;8.646;2023-07-08T00:48:15;17.10;99.90
31542;DHT22;18152;49.986;8.646;2023-07-08T00:50:41;17.20;99.90
31542;DHT22;18152;49.986;8.646;2023-07-08T00:53:23;17.10;99.90
31542;DHT22;18152;49.986;8.646;2023-07-08T00:55:52;17.10;99.90
31542;DHT22;18152;49.986;8.646;2023-07-08T00:58:21;17.10;99.90
31542;DHT22;18152;49.986;8.646;2023-07-08T01:00:49;17.20;99.90
31542;DHT22;18152;49.986;8.646;2023-07-08T01:03:18;17.10;99.90
31542;DHT22;18152;49.986;8.646;2023-07-08T01:05:45;17.10;99.90
31542;DHT22;18152;49.986;8.646;2023-07-08T01:08:12;17.00;99.90
31542;DHT22;18152;49.986;8.646;2023-07-08T01:10:45;17.00;99.90
31542;DHT22;18152;49.986;8.646;2023-07-08T01:13:12;17.00;99.90
31542;DHT22;18152;49.986;8.646;2023-07-08T01:15:42;16.90;99.90
31542;DHT22;18152;49.986;8.646;2023-07-08T01:18:10;16.90;99.90
31542;DHT22;18152;49.986;8.646;2023-07-08T01:20:37;16.90;99.90
31542;DHT22;18152;49.986;8.646;2023-07-08T01:23:03;16.90;99.90
31542;DHT22;18152;49.986;8.646;2023-07-08T01:25:30;16.90;99.90
31542;DHT22;18152;49.986;8.646;2023-07-08T01:27:57;16.90;99.90
31542;DHT22;18152;49.986;8.646;2023-07-08T01:30:23;16.80;99.90
31542;DHT22;18152;49.986;8.646;2023-07-08T01:32:53;16.80;99.90
31542;DHT22;18152;49.986;8.646;2023-07-08T01:35:21;16.80;99.90
31542;DHT22;18152;49.986;8.646;2023-07-08T01:37:51;16.80;99.90
31542;DHT22;18152;49.986;8.646;2023-07-08T01:40:36;16.70;99.90
31542;DHT22;18152;49.986;8.646;2023-07-08T01:43:03;16.70;99.90
31542;DHT22;18152;49.986;8.646;2023-07-08T01:45:37;16.70;99.90
31542;DHT22;18152;49.986;8.646;2023-07-08T01:48:06;16.70;99.90
31542;DHT22;18152;49.986;8.646;2023-07-08T01:50:35;16.70;99.90
31542;DHT22;18152;49.986;8.646;2023-07-08T01:53:06;16.70;99.90
31542;DHT22;18152;49.986;8.646;2023-07-08T01:55:33;16.70;99.90
31542;DHT22;18152;49.986;8.646;2023-07-08T01:57:59;16.80;99.90
31542;DHT22;18152;49.986;8.646;2023-07-08T02:00:24;16.80;99.90
31542;DHT22;18152;49.986;8.646;2023-07-08T02:02:51;16.90;99.90
31542;DHT22;18152;49.986;8.646;2023-07-08T02:05:17;16.90;99.90
31542;DHT22;18152;49.986;8.646;2023-07-08T02:07:42;16.90;99.90
31542;DHT22;18152;49.986;8.646;2023-07-08T02:10:08;17.00;99.90
31542;DHT22;18152;49.986;8.646;2023-07-08T02:12:33;17.00;99.90
31542;DHT22;18152;49.986;8.646;2023-07-08T02:15:03;17.10;99.90
31542;DHT22;18152;49.986;8.646;2023-07-08T02:17:29;17.10;99.90
31542;DHT22;18152;49.986;8.646;2023-07-08T02:19:55;17.10;99.90
31542;DHT22;18152;49.986;8.646;2023-07-08T02:22:21;17.10;99.90
31542;DHT22;18152;49.986;8.646;2023-07-08T02:24:46;17.10;99.90
31542;DHT22;18152;49.986;8.646;2023-07-08T02:27:13;17.10;99.90
31542;DHT22;18152;49.986;8.646;2023-07-08T02:29:39;17.00;99.90
31542;DHT22;18152;49.986;8.646;2023-07-08T02:32:05;17.00;99.90
31542;DHT22;18152;49.986;8.646;2023-07-08T02:34:30;17.00;99.90
31542;DHT22;18152;49.986;8.646;2023-07-08T02:36:56;17.00;99.90
31542;DHT22;18152;49.986;8.646;2023-07-08T02:39:22;17.00;99.90
31542;DHT22;18152;49.986;8.646;2023-07-08T02:41:48;17.00;99.90
31542;DHT22;18152;49.986;8.646;2023-07-08T02:44:13;17.00;99.90
31542;DHT22;18152;49.986;8.646;2023-07-08T02:46:39;17.00;99.90
31542;DHT22;18152;49.986;8.646;2023-07-08T02:49:05;17.00;99.90
31542;DHT22;18152;49.986;8.646;2023-07-08T02:51:31;16.90;99.90
31542;DHT22;18152;49.986;8.646;2023-07-08T02:53:57;17.00;99.90
31542;DHT22;18152;49.986;8.646;2023-07-08T02:56:23;16.90;99.90
31542;DHT22;18152;49.986;8.646;2023-07-08T02:58:49;16.90;99.90
31542;DHT22;18152;49.986;8.646;2023-07-08T03:01:14;16.90;99.90
31542;DHT22;18152;49.986;8.646;2023-07-08T03:03:44;16.90;99.90
31542;DHT22;18152;49.986;8.646;2023-07-08T03:06:10;16.90;99.90
31542;DHT22;18152;49.986;8.646;2023-07-08T03:08:36;16.90;99.90
31542;DHT22;18152;49.986;8.646;2023-07-08T03:11:03;16.90;99.90
31542;DHT22;18152;49.986;8.646;2023-07-08T03:13:30;16.80;99.90
31542;DHT22;18152;49.986;8.646;2023-07-08T03:15:57;16.80;99.90
31542;DHT22;18152;49.986;8.646;2023-07-08T03:18:24;16.70;99.90
31542;DHT22;18152;49.986;8.646;2023-07-08T03:20:55;16.70;99.90
31542;DHT22;18152;49.986;8.646;2023-07-08T03:23:22;16.70;99.90
31542;DHT22;18152;49.986;8.646;2023-07-08T03:25:47;16.60;99.90
31542;DHT22;18152;49.986;8.646;2023-07-08T03:28:13;16.70;99.90
31542;DHT22;18152;49.986;8.646;2023-07-08T03:30:43;16.60;99.90
31542;DHT22;18152;49.986;8.646;2023-07-08T03:33:10;16.70;99.90
31542;DHT22;18152;49.986;8.646;2023-07-08T03:35:36;16.70;99.90
31542;DHT22;18152;49.986;8.646;2023-07-08T03:38:02;16.80;99.90
31542;DHT22;18152;49.986;8.646;2023-07-08T03:40:28;16.80;99.90
31542;DHT22;18152;49.986;8.646;2023-07-08T03:42:53;16.90;99.90
31542;DHT22;18152;49.986;8.646;2023-07-08T03:45:19;16.90;99.90
31542;DHT22;18152;49.986;8.646;2023-07-08T03:47:44;16.90;99.90
31542;DHT22;18152;49.986;8.646;2023-07-08T03:50:24;17.00;99.90
31542;DHT22;18152;49.986;8.646;2023-07-08T03:52:52;17.00;99.90
31542;DHT22;18152;49.986;8.646;2023-07-08T03:55:19;17.00;99.90
31542;DHT22;18152;49.986;8.646;2023-07-08T03:57:45;17.10;99.90
31542;DHT22;18152;49.986;8.646;2023-07-08T04:00:11;17.20;99.90
31542;DHT22;18152;49.986;8.646;2023-07-08T04:02:43;17.20;99.90
31542;DHT22;18152;49.986;8.646;2023-07-08T04:05:17;17.20;99.90
31542;DHT22;18152;49.986;8.646;2023-07-08T04:07:42;17.30;99.90
31542;DHT22;18152;49.986;8.646;2023-07-08T04:10:09;17.30;99.90
31542;DHT22;18152;49.986;8.646;2023-07-08T04:12:35;17.40;99.90
31542;DHT22;18152;49.986;8.646;2023-07-08T04:15:02;17.40;99.90
31542;DHT22;18152;49.986;8.646;2023-07-08T04:17:27;17.40;99.90
31542;DHT22;18152;49.986;8.646;2023-07-08T04:19:53;17.40;99.90
31542;DHT22;18152;49.986;8.646;2023-07-08T04:22:19;17.40;99.90
31542;DHT22;18152;49.986;8.646;2023-07-08T04:24:45;17.40;99.90
31542;DHT22;18152;49.986;8.646;2023-07-08T04:27:16;17.50;99.90
31542;DHT22;18152;49.986;8.646;2023-07-08T04:29:42;17.50;99.90
31542;DHT22;18152;49.986;8.646;2023-07-08T04:32:08;17.60;99.90
31542;DHT22;18152;49.986;8.646;2023-07-08T04:34:34;17.60;99.90
31542;DHT22;18152;49.986;8.646;2023-07-08T04:36:59;17.70;99.90
31542;DHT22;18152;49.986;8.646;2023-07-08T04:39:26;17.80;99.90
31542;DHT22;18152;49.986;8.646;2023-07-08T04:41:52;17.90;99.90
31542;DHT22;18152;49.986;8.646;2023-07-08T04:44:18;17.90;99.90
31542;DHT22;18152;49.986;8.646;2023-07-08T04:46:56;18.00;99.90
31542;DHT22;18152;49.986;8.646;2023-07-08T04:49:23;18.00;99.90
31542;DHT22;18152;49.986;8.646;2023-07-08T04:51:50;18.10;99.90
31542;DHT22;18152;49.986;8.646;2023-07-08T04:54:16;18.10;99.90
31542;DHT22;18152;49.986;8.646;2023-07-08T04:56:47;18.20;99.90
31542;DHT22;18152;49.986;8.646;2023-07-08T04:59:16;18.30;99.90
31542;DHT22;18152;49.986;8.646;2023-07-08T05:01:43;18.30;99.90
31542;DHT22;18152;49.986;8.646;2023-07-08T05:04:12;18.40;99.90
31542;DHT22;18152;49.986;8.646;2023-07-08T05:06:38;18.40;99.90
31542;DHT22;18152;49.986;8.646;2023-07-08T05:09:04;18.50;99.90
31542;DHT22;18152;49.986;8.646;2023-07-08T05:11:30;18.50;99.90
31542;DHT22;18152;49.986;8.646;2023-07-08T05:13:56;18.60;99.90
31542;DHT22;18152;49.986;8.646;2023-07-08T05:16:22;18.60;99.90
31542;DHT22;18152;49.986;8.646;2023-07-08T05:18:48;18.70;99.90
31542;DHT22;18152;49.986;8.646;2023-07-08T05:21:14;18.70;99.90
31542;DHT22;18152;49.986;8.646;2023-07-08T05:23:40;18.70;99.90
31542;DHT22;18152;49.986;8.646;2023-07-08T05:26:07;18.80;99.90
31542;DHT22;18152;49.986;8.646;2023-07-08T05:28:33;18.80;99.90
31542;DHT22;18152;49.986;8.646;2023-07-08T05:30:59;18.80;99.90
31542;DHT22;18152;49.986;8.646;2023-07-08T05:33:27;18.80;99.90
31542;DHT22;18152;49.986;8.646;2023-07-08T05:35:53;18.90;99.90
31542;DHT22;18152;49.986;8.646;2023-07-08T05:38:19;18.90;99.90
31542;DHT22;18152;49.986;8.646;2023-07-08T05:40:53;18.90;99.90
31542;DHT22;18152;49.986;8.646;2023-07-08T05:43:19;19.00;99.90
31542;DHT22;18152;49.986;8.646;2023-07-08T05:45:45;19.00;99.90
31542;DHT22;18152;49.986;8.646;2023-07-08T05:48:11;19.10;99.90
31542;DHT22;18152;49.986;8.646;2023-07-08T05:50:38;19.10;99.90
31542;DHT22;18152;49.986;8.646;2023-07-08T05:53:04;19.10;99.90
31542;DHT22;18152;49.986;8.646;2023-07-08T05:55:31;19.10;99.90
31542;DHT22;18152;49.986;8.646;2023-07-08T05:57:57;19.10;99.90
31542;DHT22;18152;49.986;8.646;2023-07-08T06:00:22;19.10;99.90
31542;DHT22;18152;49.986;8.646;2023-07-08T06:02:48;19.20;99.90
31542;DHT22;18152;49.986;8.646;2023-07-08T06:05:13;19.20;99.90
31542;DHT22;18152;49.986;8.646;2023-07-08T06:07:39;19.30;99.90
31542;DHT22;18152;49.986;8.646;2023-07-08T06:10:05;19.30;99.90
31542;DHT22;18152;49.986;8.646;2023-07-08T06:12:30;19.60;99.90
31542;DHT22;18152;49.986;8.646;2023-07-08T06:14:56;19.80;99.90
31542;DHT22;18152;49.986;8.646;2023-07-08T06:17:22;20.00;99.90
31542;DHT22;18152;49.986;8.646;2023-07-08T06:19:48;20.20;99.90
31542;DHT22;18152;49.986;8.646;2023-07-08T06:22:13;20.20;99.90
31542;DHT22;18152;49.986;8.646;2023-07-08T06:24:39;20.20;99.90
31542;DHT22;18152;49.986;8.646;2023-07-08T06:27:05;20.40;99.70
31542;DHT22;18152;49.986;8.646;2023-07-08T06:29:33;20.50;98.50
31542;DHT22;18152;49.986;8.646;2023-07-08T06:31:59;20.70;98.40
31542;DHT22;18152;49.986;8.646;2023-07-08T06:34:24;20.70;99.90
31542;DHT22;18152;49.986;8.646;2023-07-08T06:36:50;20.70;97.70
31542;DHT22;18152;49.986;8.646;2023-07-08T06:39:16;20.90;98.80
31542;DHT22;18152;49.986;8.646;2023-07-08T06:41:42;21.00;99.90
31542;DHT22;18152;49.986;8.646;2023-07-08T06:44:08;21.20;99.90
31542;DHT22;18152;49.986;8.646;2023-07-08T06:46:34;21.30;98.10
31542;DHT22;18152;49.986;8.646;2023-07-08T06:49:00;21.30;99.90
31542;DHT22;18152;49.986;8.646;2023-07-08T06:51:26;21.30;99.90
31542;DHT22;18152;49.986;8.646;2023-07-08T06:53:51;21.20;99.90
31542;DHT22;18152;49.986;8.646;2023-07-08T06:56:17;21.20;99.90
31542;DHT22;18152;49.986;8.646;2023-07-08T06:58:43;21.20;99.90
31542;DHT22;18152;49.986;8.646;2023-07-08T07:01:08;21.10;99.90
31542;DHT22;18152;49.986;8.646;2023-07-08T07:03:34;21.20;99.70
31542;DHT22;18152;49.986;8.646;2023-07-08T07:05:59;21.20;99.90
31542;DHT22;18152;49.986;8.646;2023-07-08T07:08:25;21.10;99.90
31542;DHT22;18152;49.986;8.646;2023-07-08T07:10:50;21.00;99.90
31542;DHT22;18152;49.986;8.646;2023-07-08T07:13:16;21.00;99.90
31542;DHT22;18152;49.986;8.646;2023-07-08T07:15:42;21.00;99.90
31542;DHT22;18152;49.986;8.646;2023-07-08T07:18:07;21.20;99.90
31542;DHT22;18152;49.986;8.646;2023-07-08T07:20:35;21.30;99.90
31542;DHT22;18152;49.986;8.646;2023-07-08T07:23:01;21.30;99.90
31542;DHT22;18152;49.986;8.646;2023-07-08T07:25:27;21.10;99.90
31542;DHT22;18152;49.986;8.646;2023-07-08T07:27:52;21.00;99.90
31542;DHT22;18152;49.986;8.646;2023-07-08T07:30:18;20.80;99.90
31542;DHT22;18152;49.986;8.646;2023-07-08T07:32:44;20.80;99.90
31542;DHT22;18152;49.986;8.646;2023-07-08T07:35:11;20.90;99.90
31542;DHT22;18152;49.986;8.646;2023-07-08T07:37:39;20.80;99.90
31542;DHT22;18152;49.986;8.646;2023-07-08T07:40:10;20.80;99.90
31542;DHT22;18152;49.986;8.646;2023-07-08T07:42:38;20.80;99.90
31542;DHT22;18152;49.986;8.646;2023-07-08T07:45:05;20.90;99.90
31542;DHT22;18152;49.986;8.646;2023-07-08T07:47:30;21.20;99.90
31542;DHT22;18152;49.986;8.646;2023-07-08T07:49:56;21.30;99.90
31542;DHT22;18152;49.986;8.646;2023-07-08T07:52:22;21.40;99.90
31542;DHT22;18152;49.986;8.646;2023-07-08T07:54:51;21.60;99.90
31542;DHT22;18152;49.986;8.646;2023-07-08T07:57:16;21.70;99.90
31542;DHT22;18152;49.986;8.646;2023-07-08T07:59:42;21.80;99.90
31542;DHT22;18152;49.986;8.646;2023-07-08T08:02:08;21.80;99.90
31542;DHT22;18152;49.986;8.646;2023-07-08T08:04:34;21.60;99.90
31542;DHT22;18152;49.986;8.646;2023-07-08T08:06:59;21.60;99.90
31542;DHT22;18152;49.986;8.646;2023-07-08T08:09:25;21.80;99.90
31542;DHT22;18152;49.986;8.646;2023-07-08T08:11:51;22.70;99.90
31542;DHT22;18152;49.986;8.646;2023-07-08T08:14:17;23.40;97.90
31542;DHT22;18152;49.986;8.646;2023-07-08T08:16:44;23.50;99.90
31542;DHT22;18152;49.986;8.646;2023-07-08T08:19:09;23.50;99.90
31542;DHT22;18152;49.986;8.646;2023-07-08T08:21:35;23.60;97.50
31542;DHT22;18152;49.986;8.646;2023-07-08T08:24:01;23.90;95.90
31542;DHT22;18152;49.986;8.646;2023-07-08T08:26:27;23.90;97.90
31542;DHT22;18152;49.986;8.646;2023-07-08T08:28:53;23.60;96.50
31542;DHT22;18152;49.986;8.646;2023-07-08T08:31:19;23.40;94.00
31542;DHT22;18152;49.986;8.646;2023-07-08T08:33:45;23.50;98.90
31542;DHT22;18152;49.986;8.646;2023-07-08T08:36:11;23.70;94.80
31542;DHT22;18152;49.986;8.646;2023-07-08T08:38:36;24.40;92.10
31542;DHT22;18152;49.986;8.646;2023-07-08T08:41:12;24.80;93.30
31542;DHT22;18152;49.986;8.646;2023-07-08T08:43:39;24.90;90.70
31542;DHT22;18152;49.986;8.646;2023-07-08T08:46:16;25.10;90.30
31542;DHT22;18152;49.986;8.646;2023-07-08T08:49:18;25.40;91.90
31542;DHT22;18152;49.986;8.646;2023-07-08T08:51:48;25.50;92.00
31542;DHT22;18152;49.986;8.646;2023-07-08T08:54:14;25.70;80.50
31542;DHT22;18152;49.986;8.646;2023-07-08T08:59:52;26.90;85.70
31542;DHT22;18152;49.986;8.646;2023-07-08T09:02:27;27.20;86.10
31542;DHT22;18152;49.986;8.646;2023-07-08T09:05:00;27.30;76.20
31542;DHT22;18152;49.986;8.646;2023-07-08T09:07:28;27.60;65.80
31542;DHT22;18152;49.986;8.646;2023-07-08T09:10:03;27.40;63.70
31542;DHT22;18152;49.986;8.646;2023-07-08T09:12:31;27.40;68.10
31542;DHT22;18152;49.986;8.646;2023-07-08T09:14:58;27.80;74.40
31542;DHT22;18152;49.986;8.646;2023-07-08T09:17:30;28.30;71.20
31542;DHT22;18152;49.986;8.646;2023-07-08T09:25:03;28.10;64.40
31542;DHT22;18152;49.986;8.646;2023-07-08T09:27:30;28.10;63.20
31542;DHT22;18152;49.986;8.646;2023-07-08T09:29:56;28.00;77.20
31542;DHT22;18152;49.986;8.646;2023-07-08T09:32:23;28.00;66.10
31542;DHT22;18152;49.986;8.646;2023-07-08T09:34:52;28.00;67.20
31542;DHT22;18152;49.986;8.646;2023-07-08T09:39:46;27.70;65.60
31542;DHT22;18152;49.986;8.646;2023-07-08T09:42:14;27.70;63.70
31542;DHT22;18152;49.986;8.646;2023-07-08T09:44:40;27.50;65.30
31542;DHT22;18152;49.986;8.646;2023-07-08T09:47:33;27.50;67.00
31542;DHT22;18152;49.986;8.646;2023-07-08T09:50:00;27.50;68.50
31542;DHT22;18152;49.986;8.646;2023-07-08T09:52:28;28.30;70.10
31542;DHT22;18152;49.986;8.646;2023-07-08T09:54:54;28.70;74.30
31542;DHT22;18152;49.986;8.646;2023-07-08T09:57:27;28.90;63.10
31542;DHT22;18152;49.986;8.646;2023-07-08T09:59:57;28.70;61.40
31542;DHT22;18152;49.986;8.646;2023-07-08T10:02:38;29.00;63.90
31542;DHT22;18152;49.986;8.646;2023-07-08T10:05:19;29.00;61.60
31542;DHT22;18152;49.986;8.646;2023-07-08T10:07:46;28.70;61.80
31542;DHT22;18152;49.986;8.646;2023-07-08T10:10:16;28.70;66.60
31542;DHT22;18152;49.986;8.646;2023-07-08T10:12:49;29.00;61.90
31542;DHT22;18152;49.986;8.646;2023-07-08T10:15:43;29.40;61.10
31542;DHT22;18152;49.986;8.646;2023-07-08T10:18:25;29.30;59.20
31542;DHT22;18152;49.986;8.646;2023-07-08T10:26:10;29.10;59.70
31542;DHT22;18152;49.986;8.646;2023-07-08T10:34:59;30.10;65.60
31542;DHT22;18152;49.986;8.646;2023-07-08T10:38:28;30.60;64.60
31542;DHT22;18152;49.986;8.646;2023-07-08T10:41:25;31.60;64.50
31542;DHT22;18152;49.986;8.646;2023-07-08T10:44:07;31.00;56.80
31542;DHT22;18152;49.986;8.646;2023-07-08T10:55:26;32.10;64.10
31542;DHT22;18152;49.986;8.646;2023-07-08T11:09:07;32.20;56.60
31542;DHT22;18152;49.986;8.646;2023-07-08T11:11:42;32.70;62.60
31542;DHT22;18152;49.986;8.646;2023-07-08T11:14:15;33.10;60.10
31542;DHT22;18152;49.986;8.646;2023-07-08T11:19:21;33.40;61.70
31542;DHT22;18152;49.986;8.646;2023-07-08T11:21:53;33.10;53.30
31542;DHT22;18152;49.986;8.646;2023-07-08T11:24:32;32.00;54.50
31542;DHT22;18152;49.986;8.646;2023-07-08T11:27:29;32.10;62.10
31542;DHT22;18152;49.986;8.646;2023-07-08T11:32:24;32.70;54.90
31542;DHT22;18152;49.986;8.646;2023-07-08T11:34:52;32.30;55.90
31542;DHT22;18152;49.986;8.646;2023-07-08T11:37:19;32.50;55.90
31542;DHT22;18152;49.986;8.646;2023-07-08T11:39:54;32.40;54.50
31542;DHT22;18152;49.986;8.646;2023-07-08T11:42:41;32.50;54.50
31542;DHT22;18152;49.986;8.646;2023-07-08T11:45:31;32.30;59.20
31542;DHT22;18152;49.986;8.646;2023-07-08T11:50:39;32.10;54.30
31542;DHT22;18152;49.986;8.646;2023-07-08T11:53:10;31.60;53.50
31542;DHT22;18152;49.986;8.646;2023-07-08T11:55:46;31.90;60.10
31542;DHT22;18152;49.986;8.646;2023-07-08T11:58:27;31.90;51.90
31542;DHT22;18152;49.986;8.646;2023-07-08T12:03:47;32.10;53.90
31542;DHT22;18152;49.986;8.646;2023-07-08T12:08:53;32.10;51.10
31542;DHT22;18152;49.986;8.646;2023-07-08T12:11:28;32.20;54.80
31542;DHT22;18152;49.986;8.646;2023-07-08T12:13:58;32.20;55.90
31542;DHT22;18152;49.986;8.646;2023-07-08T12:16:25;32.30;52.90
31542;DHT22;18152;49.986;8.646;2023-07-08T12:18:52;32.10;49.60
31542;DHT22;18152;49.986;8.646;2023-07-08T12:21:18;32.30;52.00
31542;DHT22;18152;49.986;8.646;2023-07-08T12:23:46;32.30;50.80
31542;DHT22;18152;49.986;8.646;2023-07-08T12:26:12;32.60;61.20
31542;DHT22;18152;49.986;8.646;2023-07-08T12:28:38;32.90;60.70
31542;DHT22;18152;49.986;8.646;2023-07-08T12:31:17;32.50;50.70
31542;DHT22;18152;49.986;8.646;2023-07-08T12:33:44;32.40;52.60
31542;DHT22;18152;49.986;8.646;2023-07-08T12:36:13;32.80;58.70
31542;DHT22;18152;49.986;8.646;2023-07-08T12:38:42;33.20;59.00
31542;DHT22;18152;49.986;8.646;2023-07-08T12:43:37;32.80;50.30
31542;DHT22;18152;49.986;8.646;2023-07-08T12:46:03;32.80;51.80
31542;DHT22;18152;49.986;8.646;2023-07-08T12:48:38;32.40;49.10
31542;DHT22;18152;49.986;8.646;2023-07-08T12:51:09;32.00;49.70
31542;DHT22;18152;49.986;8.646;2023-07-08T12:53:36;32.20;51.30
31542;DHT22;18152;49.986;8.646;2023-07-08T12:56:02;32.30;52.50
31542;DHT22;18152;49.986;8.646;2023-07-08T12:58:30;32.70;55.20
31542;DHT22;18152;49.986;8.646;2023-07-08T13:01:00;32.60;48.60
31542;DHT22;18152;49.986;8.646;2023-07-08T13:03:29;32.70;56.20
31542;DHT22;18152;49.986;8.646;2023-07-08T13:05:56;33.00;52.10
31542;DHT22;18152;49.986;8.646;2023-07-08T13:08:25;32.70;51.10
31542;DHT22;18152;49.986;8.646;2023-07-08T13:10:56;32.70;61.00
31542;DHT22;18152;49.986;8.646;2023-07-08T13:13:25;32.60;55.50
31542;DHT22;18152;49.986;8.646;2023-07-08T13:15:52;32.70;63.20
31542;DHT22;18152;49.986;8.646;2023-07-08T13:18:33;32.60;57.10
31542;DHT22;18152;49.986;8.646;2023-07-08T13:20:59;33.10;52.70
31542;DHT22;18152;49.986;8.646;2023-07-08T13:23:26;33.20;54.40
31542;DHT22;18152;49.986;8.646;2023-07-08T13:25:53;33.20;51.00
31542;DHT22;18152;49.986;8.646;2023-07-08T13:28:43;32.80;51.10
31542;DHT22;18152;49.986;8.646;2023-07-08T13:31:19;32.60;54.90
31542;DHT22;18152;49.986;8.646;2023-07-08T13:34:09;32.80;63.70
31542;DHT22;18152;49.986;8.646;2023-07-08T13:36:39;32.90;59.20
31542;DHT22;18152;49.986;8.646;2023-07-08T13:39:12;33.20;55.10
31542;DHT22;18152;49.986;8.646;2023-07-08T13:41:43;32.50;52.00
31542;DHT22;18152;49.986;8.646;2023-07-08T13:44:09;32.30;52.50
31542;DHT22;18152;49.986;8.646;2023-07-08T13:46:38;32.30;51.90
31542;DHT22;18152;49.986;8.646;2023-07-08T13:49:38;32.20;51.90
31542;DHT22;18152;49.986;8.646;2023-07-08T13:52:23;32.50;59.50
31542;DHT22;18152;49.986;8.646;2023-07-08T13:54:52;32.30;52.90
31542;DHT22;18152;49.986;8.646;2023-07-08T13:57:31;32.30;53.70
31542;DHT22;18152;49.986;8.646;2023-07-08T13:59:57;32.40;56.60
31542;DHT22;18152;49.986;8.646;2023-07-08T14:02:26;32.50;54.90
31542;DHT22;18152;49.986;8.646;2023-07-08T14:04:53;32.50;52.10
31542;DHT22;18152;49.986;8.646;2023-07-08T14:07:22;32.50;51.90
31542;DHT22;18152;49.986;8.646;2023-07-08T14:09:48;32.40;54.90
31542;DHT22;18152;49.986;8.646;2023-07-08T14:12:14;32.80;59.20
31542;DHT22;18152;49.986;8.646;2023-07-08T14:14:41;32.80;57.60
31542;DHT22;18152;49.986;8.646;2023-07-08T14:17:14;32.60;51.60
31542;DHT22;18152;49.986;8.646;2023-07-08T14:19:40;32.50;53.70
31542;DHT22;18152;49.986;8.646;2023-07-08T14:24:39;32.20;51.70
31542;DHT22;18152;49.986;8.646;2023-07-08T14:27:05;32.30;52.90
31542;DHT22;18152;49.986;8.646;2023-07-08T14:29:35;32.30;53.50
31542;DHT22;18152;49.986;8.646;2023-07-08T14:32:01;32.20;53.10
31542;DHT22;18152;49.986;8.646;2023-07-08T14:34:27;32.20;52.40
31542;DHT22;18152;49.986;8.646;2023-07-08T14:36:53;32.30;54.10
31542;DHT22;18152;49.986;8.646;2023-07-08T14:39:19;32.20;57.50
31542;DHT22;18152;49.986;8.646;2023-07-08T14:41:48;32.10;54.00
31542;DHT22;18152;49.986;8.646;2023-07-08T14:46:48;32.00;57.70
31542;DHT22;18152;49.986;8.646;2023-07-08T14:49:17;32.20;56.90
31542;DHT22;18152;49.986;8.646;2023-07-08T14:51:43;32.20;54.10
31542;DHT22;18152;49.986;8.646;2023-07-08T14:54:09;32.10;52.00
31542;DHT22;18152;49.986;8.646;2023-07-08T14:56:34;32.20;51.00
31542;DHT22;18152;49.986;8.646;2023-07-08T14:59:00;32.00;52.20
31542;DHT22;18152;49.986;8.646;2023-07-08T15:01:26;32.00;51.70
31542;DHT22;18152;49.986;8.646;2023-07-08T15:07:18;31.90;50.80
31542;DHT22;18152;49.986;8.646;2023-07-08T15:09:44;32.00;50.40
31542;DHT22;18152;49.986;8.646;2023-07-08T15:12:10;32.00;49.10
31542;DHT22;18152;49.986;8.646;2023-07-08T15:14:37;32.00;50.70
31542;DHT22;18152;49.986;8.646;2023-07-08T15:17:17;31.90;50.00
31542;DHT22;18152;49.986;8.646;2023-07-08T15:19:44;32.00;50.30
31542;DHT22;18152;49.986;8.646;2023-07-08T15:22:09;32.00;50.10
31542;DHT22;18152;49.986;8.646;2023-07-08T15:24:35;31.90;50.00
31542;DHT22;18152;49.986;8.646;2023-07-08T15:27:03;31.90;51.30
31542;DHT22;18152;49.986;8.646;2023-07-08T15:29:29;31.70;54.50
31542;DHT22;18152;49.986;8.646;2023-07-08T15:31:55;31.80;53.30
31542;DHT22;18152;49.986;8.646;2023-07-08T15:34:22;31.70;51.00
31542;DHT22;18152;49.986;8.646;2023-07-08T15:36:48;31.70;57.30
31542;DHT22;18152;49.986;8.646;2023-07-08T15:39:14;31.50;58.40
31542;DHT22;18152;49.986;8.646;2023-07-08T15:41:40;31.10;64.60
31542;DHT22;18152;49.986;8.646;2023-07-08T15:44:13;30.90;64.10
31542;DHT22;18152;49.986;8.646;2023-07-08T15:46:45;30.80;62.00
31542;DHT22;18152;49.986;8.646;2023-07-08T15:49:18;30.70;55.20
31542;DHT22;18152;49.986;8.646;2023-07-08T15:51:44;31.20;55.40
31542;DHT22;18152;49.986;8.646;2023-07-08T15:54:10;31.30;52.70
31542;DHT22;18152;49.986;8.646;2023-07-08T15:56:36;31.10;60.90
31542;DHT22;18152;49.986;8.646;2023-07-08T15:59:02;31.50;53.00
31542;DHT22;18152;49.986;8.646;2023-07-08T16:01:28;31.90;52.30
31542;DHT22;18152;49.986;8.646;2023-07-08T16:03:54;31.90;52.80
31542;DHT22;18152;49.986;8.646;2023-07-08T16:06:20;31.80;50.70
31542;DHT22;18152;49.986;8.646;2023-07-08T16:08:46;31.80;51.60
31542;DHT22;18152;49.986;8.646;2023-07-08T16:11:15;31.80;50.90
31542;DHT22;18152;49.986;8.646;2023-07-08T16:13:42;31.60;54.70
31542;DHT22;18152;49.986;8.646;2023-07-08T16:16:10;31.50;51.60
31542;DHT22;18152;49.986;8.646;2023-07-08T16:18:36;31.60;50.40
31542;DHT22;18152;49.986;8.646;2023-07-08T16:21:02;31.90;51.90
31542;DHT22;18152;49.986;8.646;2023-07-08T16:23:28;31.80;51.10
31542;DHT22;18152;49.986;8.646;2023-07-08T16:25:53;31.70;51.00
31542;DHT22;18152;49.986;8.646;2023-07-08T16:28:30;31.50;51.80
31542;DHT22;18152;49.986;8.646;2023-07-08T16:30:57;31.40;52.30
31542;DHT22;18152;49.986;8.646;2023-07-08T16:33:23;31.30;56.10
31542;DHT22;18152;49.986;8.646;2023-07-08T16:35:49;31.20;51.80
31542;DHT22;18152;49.986;8.646;2023-07-08T16:38:15;31.10;53.20
31542;DHT22;18152;49.986;8.646;2023-07-08T16:40:41;30.90;57.20
31542;DHT22;18152;49.986;8.646;2023-07-08T16:43:39;30.50;54.00
31542;DHT22;18152;49.986;8.646;2023-07-08T16:46:05;30.20;61.80
31542;DHT22;18152;49.986;8.646;2023-07-08T16:48:30;29.80;66.50